Flight Track Log - Related Links

Times and Time Zones

All times are in EDT time to prevent confusion due to time zone crossing. See the SWA2336 flight status page for this flight to view local times or setup timezone preferences in your user account.

Time Position Orientation Groundspeed Altitude Reporting Facility
EDT Latitude Longitude Course Direction KTS MPH feet Rate Location/Type
Thu 02:51:41 PM 32.9167 -96.9500 312° West 241 277 6,000  Level Dallas / Fort Worth TRACON
Thu 02:52:41 PM 32.9833 -97.0000 328° Northwest 275 316 9,400 2,737 Climbing Dallas / Fort Worth TRACON
Thu 02:54:32 PM 33.0231 -97.1508 287° West 291 335 13,800 2,667 Climbing Fort Worth Center
Thu 02:55:32 PM 33.0128 -97.2722 264° West 309 356 17,000 2,700 Climbing Fort Worth Center
Thu 02:56:00 PM 32.9703 -97.4476 287° West  Level FlightAware Approximate
Thu 02:56:32 PM 33.0067 -97.3764 266° West 349 402 19,200  Level Fort Worth Center
Thu 02:57:32 PM 32.9961 -97.5150 265° West 372 428 21,000 2,250 Climbing Fort Worth Center
Thu 02:58:32 PM 32.9875 -97.6461 266° West 396 456 23,700 2,400 Climbing Fort Worth Center
Thu 02:59:32 PM 32.9872 -97.7775 270° West 396 456 25,800 1,850 Climbing Fort Worth Center
Thu 03:00:32 PM 33.0056 -97.9039 280° West 403 464 27,400 2,000 Climbing Fort Worth Center
Thu 03:01:32 PM 33.0258 -98.0328 281° West 408 470 29,800 2,100 Climbing Fort Worth Center
Thu 03:02:32 PM 33.0461 -98.1594 281° West 402 463 31,600 1,600 Climbing Fort Worth Center
Thu 03:03:32 PM 33.0661 -98.2836 281° West 387 445 33,000 1,200 Climbing Fort Worth Center
Thu 03:04:32 PM 33.0903 -98.4078 283° West 392 451 34,000 500 Climbing Fort Worth Center
Thu 03:05:32 PM 33.1144 -98.5319 283° West 392 451 34,000  Level Fort Worth Center
Thu 03:06:32 PM 33.1361 -98.6564 282° West 392 451 34,000  Level Fort Worth Center
Thu 03:07:32 PM 33.1619 -98.7808 284° West 392 451 34,000  Level Fort Worth Center
Thu 03:08:32 PM 33.1856 -98.9053 283° West 392 451 34,000  Level Fort Worth Center
Thu 03:09:32 PM 33.2069 -99.0297 282° West 392 451 34,000  Level Fort Worth Center
Thu 03:10:32 PM 33.2325 -99.1519 284° West 387 445 34,000  Level Fort Worth Center
Thu 03:11:32 PM 33.2536 -99.2767 281° West 387 445 34,000  Level Fort Worth Center
Thu 03:12:32 PM 33.2769 -99.3989 283° West 387 445 34,000  Level Fort Worth Center
Thu 03:13:32 PM 33.2978 -99.5233 281° West 387 445 34,000  Level Fort Worth Center
Thu 03:14:32 PM 33.3186 -99.6433 282° West 382 440 34,000  Level Fort Worth Center
Thu 03:15:32 PM 33.3433 -99.7683 283° West 382 440 34,000  Level Fort Worth Center
Thu 03:16:32 PM 33.3642 -99.8906 282° West 377 434 34,000  Level Fort Worth Center
Thu 03:17:32 PM 33.3867 -100.0133 282° West 372 428 34,000 -50 Level Fort Worth Center
Thu 03:18:32 PM 33.4092 -100.1333 283° West 372 428 33,900 -550 Descending Fort Worth Center
Thu 03:19:32 PM 33.4272 -100.2533 280° West 372 428 32,900 -1,160 Descending Fort Worth Center
Thu 03:20:31 PM 33.4497 -100.3711 283° West 372 428 31,600 -2,250 Descending Fort Worth Center
Thu 03:21:32 PM 33.4697 -100.4961 281° West 377 434 28,400 -2,876 Descending Fort Worth Center
Thu 03:22:32 PM 33.4917 -100.6189 282° West 377 434 25,800 -2,500 Descending Fort Worth Center
Thu 03:23:32 PM 33.5114 -100.7394 281° West 372 428 23,400 -2,231 Descending Fort Worth Center
Thu 03:23:50 PM 33.5108 -100.7642 268° West 362 417 22,900 -2,449 Descending Fort Worth Center
Thu 03:24:21 PM 33.5236 -100.8319 283° West 354 407 21,400 -2,637 Descending Fort Worth Center
Thu 03:25:21 PM 33.5453 -100.9525 282° West 348 400 18,900 -2,430 Descending Fort Worth Center
Thu 03:26:22 PM 33.5650 -101.0631 282° West 340 391 16,500 -2,625 Descending Fort Worth Center
Thu 03:27:29 PM 33.5825 -101.1783 280° West 333 383 13,300 -2,926 Descending Fort Worth Center
Thu 03:28:23 PM 33.6003 -101.2789 282° West 331 381 10,600 -1,722 Descending Fort Worth Center
Thu 03:29:24 PM 33.6158 -101.3817 280° West 292 336 10,000 -1,087 Descending Fort Worth Center
Thu 03:30:30 PM 33.6419 -101.4778 288° West 254 292 8,300 -1,606 Descending Fort Worth Center
Thu 03:31:31 PM 33.6642 -101.5611 288° West 260 299 6,600 -1,655 Descending Fort Worth Center
Thu 03:32:26 PM 33.6828 -101.6344 287° West 253 291 5,100 -1,148 Descending Fort Worth Center
Thu 03:33:26 PM 33.7031 -101.7128 287° West 243 280 4,400 -286 Descending Fort Worth Center
Thu 03:34:32 PM 33.7178 -101.7683 288° West 201 231 4,500 -190 Climbing Fort Worth Center
Thu 03:35:32 PM 33.7164 -101.8083 268° West 153 176 4,000 -555 Descending Fort Worth Center
Thu 03:36:31 PM 33.6883 -101.8294 212° Southwest 134 154 3,400 -350 Descending Fort Worth Center
Thu 03:37:32 PM 33.6592 -101.8328 185° South 129 148 3,300 -50 Descending Fort Worth Center
Thu 03:38:32 PM 33.6461 -101.8447 217° Southwest 48 55 3,300  Level Fort Worth Center

Login

Don't have an account? Register now (free) for customized features, flight alerts, and more!